Time;durP1;ratioP1;P1;durP2;ratioP2;P2;SDS_P1;SDS_P2;PMS_P1;PMS_P2;Temp;Humidity;BMP_temperature;BMP_pressure;BME280_temperature;BME280_humidity;BME280_pressure;Samples;Min_cycle;Max_cycle;Signal;HPM_P1;HPM_P2
2022/08/05 00:01:54;;;;;;;8.27;3.40;;;19.60;99.50;;;;;;5113030;28;20253;-61
2022/08/05 00:04:21;;;;;;;4.83;2.90;;;19.50;99.90;;;;;;5113030;27;20618;-61
2022/08/05 00:06:47;;;;;;;4.77;2.93;;;19.40;99.90;;;;;;5112814;28;20616;-64
2022/08/05 00:09:14;;;;;;;6.10;3.43;;;19.30;99.90;;;;;;5113266;28;20203;-61
2022/08/05 00:11:41;;;;;;;6.30;3.27;;;19.30;99.90;;;;;;5112928;28;20296;-61
2022/08/05 00:14:08;;;;;;;7.67;3.37;;;19.20;99.90;;;;;;5113006;28;20256;-62
2022/08/05 00:16:35;;;;;;;7.10;3.10;;;19.20;99.90;;;;;;5112664;28;20223;-61
2022/08/05 00:19:03;;;;;;;6.17;3.33;;;19.20;99.90;;;;;;5113080;28;20229;-62
2022/08/05 00:21:29;;;;;;;5.37;2.80;;;19.30;99.90;;;;;;5112666;28;20740;-62
2022/08/05 00:23:59;;;;;;;5.03;3.30;;;19.30;99.90;;;;;;5112866;28;20363;-62
2022/08/05 00:26:26;;;;;;;6.63;3.20;;;19.40;99.90;;;;;;5112463;28;20206;-61
2022/08/05 00:28:53;;;;;;;5.87;3.07;;;19.40;99.90;;;;;;5112635;28;20252;-61
2022/08/05 00:31:19;;;;;;;5.33;2.87;;;19.40;96.20;;;;;;5112892;28;20257;-62
2022/08/05 00:33:46;;;;;;;3.97;2.83;;;19.30;94.70;;;;;;5112594;28;20207;-61
2022/08/05 00:36:14;;;;;;;4.83;2.93;;;19.30;94.90;;;;;;5112180;28;20207;-62
2022/08/05 00:38:41;;;;;;;5.07;3.67;;;19.40;94.50;;;;;;5112499;28;20203;-61
2022/08/05 00:41:07;;;;;;;5.17;3.60;;;19.30;94.10;;;;;;5112523;28;20269;-61
2022/08/05 00:43:35;;;;;;;4.83;3.33;;;19.30;95.20;;;;;;5112379;28;20974;-61
2022/08/05 00:46:02;;;;;;;4.50;3.37;;;19.30;98.40;;;;;;5112118;28;20211;-62
2022/08/05 00:48:29;;;;;;;6.47;3.63;;;19.30;99.30;;;;;;5112540;28;20268;-63
2022/08/05 00:50:56;;;;;;;5.07;3.30;;;19.30;99.90;;;;;;5112367;28;20284;-63
2022/08/05 00:53:24;;;;;;;7.53;3.83;;;19.30;99.40;;;;;;5112245;28;20199;-61
2022/08/05 00:55:51;;;;;;;6.73;3.63;;;19.30;99.40;;;;;;5112276;28;20208;-64
2022/08/05 00:58:18;;;;;;;5.53;3.50;;;19.20;99.90;;;;;;5112418;28;20284;-63
2022/08/05 01:00:45;;;;;;;7.60;3.43;;;19.30;99.90;;;;;;5112304;28;20227;-62
2022/08/05 01:03:13;;;;;;;5.83;3.77;;;19.20;99.90;;;;;;5112340;28;20235;-62
2022/08/05 01:05:40;;;;;;;4.70;3.80;;;19.30;99.90;;;;;;5112205;28;20212;-62
2022/08/05 01:08:06;;;;;;;7.60;3.53;;;19.20;99.90;;;;;;5111992;28;20196;-62
2022/08/05 01:10:40;;;;;;;6.73;3.90;;;19.20;99.90;;;;;;5112045;28;20281;-64
2022/08/05 01:13:16;;;;;;;8.67;4.30;;;19.10;99.90;;;;;;5112361;28;20294;-64
2022/08/05 01:15:49;;;;;;;5.93;3.90;;;19.00;99.90;;;;;;5112199;28;20207;-62
2022/08/05 01:18:22;;;;;;;5.73;3.87;;;19.00;99.90;;;;;;5111785;28;20280;-62
2022/08/05 01:21:00;;;;;;;6.10;3.97;;;19.00;99.90;;;;;;5111971;28;20231;-62
2022/08/05 01:23:40;;;;;;;4.73;3.77;;;19.00;99.90;;;;;;5112233;28;20203;-62
2022/08/05 01:26:26;;;;;;;9.27;4.07;;;19.10;99.90;;;;;;5112038;28;20203;-61
2022/08/05 01:28:59;;;;;;;8.10;4.03;;;19.10;99.90;;;;;;5111944;28;20696;-62
2022/08/05 01:31:35;;;;;;;6.03;4.07;;;19.00;99.90;;;;;;5111911;28;20226;-62
2022/08/05 01:34:07;;;;;;;6.33;3.90;;;18.90;99.90;;;;;;5112213;28;20207;-64
2022/08/05 01:36:40;;;;;;;6.33;4.10;;;18.80;99.90;;;;;;5111636;28;20213;-62
2022/08/05 01:39:07;;;;;;;6.17;4.20;;;18.80;99.90;;;;;;5111953;28;20294;-61
2022/08/05 01:41:36;;;;;;;5.13;4.03;;;18.70;99.90;;;;;;5111774;28;20235;-62
2022/08/05 01:44:07;;;;;;;5.83;3.80;;;18.70;99.90;;;;;;5111778;28;20562;-62
2022/08/05 01:46:35;;;;;;;5.97;4.20;;;18.60;99.90;;;;;;5111723;28;20248;-62
2022/08/05 01:49:04;;;;;;;5.73;3.80;;;18.70;99.90;;;;;;5111965;28;20215;-62
2022/08/05 01:51:34;;;;;;;6.77;4.00;;;18.70;99.90;;;;;;5111537;28;20713;-62
2022/08/05 01:54:05;;;;;;;6.33;3.63;;;18.60;99.90;;;;;;5111810;28;20743;-62
2022/08/05 01:56:36;;;;;;;8.67;3.40;;;18.70;99.90;;;;;;5111628;28;20546;-62
2022/08/05 01:59:09;;;;;;;6.40;3.93;;;18.70;99.90;;;;;;5111666;28;20809;-62
2022/08/05 02:01:37;;;;;;;6.97;3.90;;;18.70;99.90;;;;;;5111921;28;20235;-61
2022/08/05 02:04:06;;;;;;;8.37;3.80;;;18.80;99.90;;;;;;5111719;28;20666;-62
2022/08/05 02:06:34;;;;;;;5.70;4.07;;;18.80;99.90;;;;;;5111807;28;20226;-62
2022/08/05 02:09:00;;;;;;;4.63;3.47;;;18.80;99.90;;;;;;5115941;28;20203;-62
2022/08/05 02:11:32;;;;;;;8.43;3.90;;;18.80;99.90;;;;;;5115612;28;20710;-61
2022/08/05 02:14:03;;;;;;;7.30;3.90;;;19.00;99.90;;;;;;5116070;28;20260;-63
2022/08/05 02:16:39;;;;;;;5.23;3.57;;;19.00;99.90;;;;;;5115386;28;20263;-62
2022/08/05 02:19:18;;;;;;;7.23;4.33;;;19.10;99.90;;;;;;5115477;27;20280;-62
2022/08/05 02:21:50;;;;;;;6.50;4.13;;;19.10;99.90;;;;;;5115437;28;20280;-62
2022/08/05 02:24:20;;;;;;;7.00;4.70;;;19.00;99.90;;;;;;5115424;28;20256;-62
2022/08/05 02:26:51;;;;;;;6.17;4.13;;;19.00;99.90;;;;;;5114945;28;20294;-62
2022/08/05 02:29:22;;;;;;;7.63;4.50;;;18.90;99.90;;;;;;5115169;28;20208;-62
2022/08/05 02:31:52;;;;;;;5.80;4.40;;;18.80;99.90;;;;;;5114915;28;20288;-62
2022/08/05 02:34:21;;;;;;;7.10;4.50;;;18.80;99.90;;;;;;5115209;28;20218;-65
2022/08/05 02:36:51;;;;;;;7.07;4.10;;;18.80;99.90;;;;;;5114520;28;20216;-62
2022/08/05 02:39:20;;;;;;;8.87;4.40;;;18.70;99.90;;;;;;5114912;28;20644;-63
2022/08/05 02:41:48;;;;;;;5.27;4.30;;;18.60;99.90;;;;;;5114839;27;20228;-62
2022/08/05 02:44:16;;;;;;;6.03;4.20;;;18.70;99.90;;;;;;5114651;28;20272;-62
2022/08/05 02:46:46;;;;;;;4.83;4.07;;;18.60;99.90;;;;;;5114637;28;20219;-62
2022/08/05 02:49:15;;;;;;;6.70;5.40;;;18.50;99.90;;;;;;5114896;28;20551;-62
2022/08/05 02:51:43;;;;;;;7.77;4.93;;;18.40;99.90;;;;;;5114646;28;20269;-62
2022/08/05 02:54:12;;;;;;;6.00;4.37;;;18.40;99.90;;;;;;5114661;28;20624;-62
2022/08/05 02:56:40;;;;;;;6.27;4.47;;;18.40;99.90;;;;;;5114018;28;20236;-64
2022/08/05 02:59:09;;;;;;;9.03;4.87;;;18.30;99.90;;;;;;5114598;27;20292;-62
2022/08/05 03:01:40;;;;;;;8.47;4.83;;;18.30;99.90;;;;;;5114489;28;20253;-62
2022/08/05 03:04:10;;;;;;;7.90;4.83;;;18.30;99.90;;;;;;5114653;28;20258;-62
2022/08/05 03:06:40;;;;;;;7.80;5.67;;;18.20;99.90;;;;;;5113932;28;20199;-62
2022/08/05 03:09:07;;;;;;;10.30;5.50;;;18.20;99.90;;;;;;5114457;28;20241;-61
2022/08/05 03:11:35;;;;;;;7.73;5.53;;;18.30;99.90;;;;;;5114214;28;20276;-62
2022/08/05 03:14:01;;;;;;;11.67;6.00;;;18.20;99.90;;;;;;5114469;28;20276;-61
2022/08/05 03:16:28;;;;;;;8.70;6.00;;;18.10;99.90;;;;;;5114113;28;20281;-62
2022/08/05 03:18:54;;;;;;;10.47;5.63;;;18.20;99.90;;;;;;5113030;28;20296;-62
2022/08/05 03:21:21;;;;;;;12.03;5.97;;;18.20;99.90;;;;;;5114057;27;20223;-62
2022/08/05 03:23:50;;;;;;;7.00;5.23;;;18.20;99.90;;;;;;5113976;28;20256;-62
2022/08/05 03:26:17;;;;;;;10.23;6.40;;;18.20;99.90;;;;;;5113843;28;20622;-62
2022/08/05 03:28:44;;;;;;;8.70;6.47;;;18.10;99.90;;;;;;5113994;28;20203;-62
2022/08/05 03:31:11;;;;;;;10.83;6.63;;;17.90;99.90;;;;;;5113846;28;20798;-63
2022/08/05 03:33:39;;;;;;;11.13;7.03;;;17.80;99.90;;;;;;5113894;28;20233;-62
2022/08/05 03:36:06;;;;;;;10.03;6.67;;;17.90;99.90;;;;;;5113541;28;20219;-62
2022/08/05 03:38:33;;;;;;;9.00;6.97;;;17.70;99.90;;;;;;5113182;28;20263;-62
2022/08/05 03:41:01;;;;;;;11.53;7.53;;;17.60;99.90;;;;;;5113871;28;20281;-61
2022/08/05 03:43:28;;;;;;;12.80;7.57;;;17.60;99.90;;;;;;5113771;28;20204;-61
2022/08/05 03:45:55;;;;;;;10.70;7.57;;;17.70;99.90;;;;;;5113238;28;20228;-63
2022/08/05 03:48:22;;;;;;;12.43;7.87;;;17.60;99.90;;;;;;5113433;28;20771;-62
2022/08/05 03:50:52;;;;;;;12.87;7.87;;;17.60;99.90;;;;;;5113556;28;20219;-62
2022/08/05 03:53:27;;;;;;;13.83;7.30;;;17.50;99.90;;;;;;5113517;28;20260;-62
2022/08/05 03:56:00;;;;;;;11.57;8.50;;;17.50;99.90;;;;;;5113240;28;20198;-62
2022/08/05 03:58:32;;;;;;;15.43;9.77;;;17.40;99.90;;;;;;5113448;28;20215;-61
2022/08/05 04:01:02;;;;;;;13.27;7.73;;;17.50;99.90;;;;;;5113219;28;20733;-64
2022/08/05 04:03:34;;;;;;;14.13;7.67;;;17.50;99.90;;;;;;5113190;28;20207;-61
2022/08/05 04:06:01;;;;;;;15.80;7.47;;;17.60;99.90;;;;;;5112947;28;20241;-62
2022/08/05 04:08:29;;;;;;;9.60;7.50;;;17.60;99.90;;;;;;5113306;28;20204;-62
2022/08/05 04:10:56;;;;;;;11.43;7.77;;;17.60;99.90;;;;;;5113018;28;20314;-62
2022/08/05 04:13:23;;;;;;;12.40;6.97;;;17.60;99.90;;;;;;5113123;28;20210;-62
2022/08/05 04:15:52;;;;;;;11.77;7.33;;;17.60;99.90;;;;;;5112894;28;20562;-64
2022/08/05 04:18:19;;;;;;;9.97;6.63;;;17.50;99.90;;;;;;5113018;28;20227;-62
2022/08/05 04:20:53;;;;;;;15.20;8.87;;;17.50;99.90;;;;;;5112933;28;20223;-62
2022/08/05 04:23:20;;;;;;;12.63;8.47;;;17.70;99.90;;;;;;5113010;28;20203;-62
2022/08/05 04:25:46;;;;;;;13.03;7.80;;;17.90;99.90;;;;;;5112762;28;20259;-62
2022/08/05 04:28:13;;;;;;;13.80;8.17;;;18.10;99.90;;;;;;5112453;28;20196;-62
2022/08/05 04:30:40;;;;;;;9.77;6.97;;;18.20;99.90;;;;;;5112297;28;20223;-63
2022/08/05 04:33:08;;;;;;;9.77;7.10;;;18.40;99.90;;;;;;5111711;28;20256;-62
2022/08/05 04:35:34;;;;;;;10.63;7.43;;;18.40;99.90;;;;;;5112104;28;20212;-62
2022/08/05 04:38:01;;;;;;;8.17;5.90;;;18.40;99.90;;;;;;5112096;28;20215;-62
2022/08/05 04:40:27;;;;;;;11.57;6.80;;;18.30;99.90;;;;;;5112512;28;20288;-62
2022/08/05 04:42:54;;;;;;;9.23;6.90;;;18.40;99.90;;;;;;5112159;28;20569;-62
2022/08/05 04:45:24;;;;;;;11.73;7.57;;;18.30;99.90;;;;;;5112619;28;20273;-62
2022/08/05 04:47:51;;;;;;;10.37;7.67;;;18.30;99.90;;;;;;5112190;28;20206;-62
2022/08/05 04:50:19;;;;;;;13.13;8.37;;;18.20;99.90;;;;;;5112432;28;20204;-63
2022/08/05 04:52:46;;;;;;;12.13;7.70;;;18.20;99.90;;;;;;5112129;28;20211;-63
2022/08/05 04:55:12;;;;;;;12.37;8.50;;;18.10;99.90;;;;;;5112361;28;20248;-63
2022/08/05 04:57:39;;;;;;;12.40;8.97;;;18.00;99.90;;;;;;5111810;28;20248;-65
2022/08/05 05:00:07;;;;;;;14.73;9.07;;;18.10;99.90;;;;;;5112400;28;20215;-64
2022/08/05 05:02:33;;;;;;;13.43;9.57;;;18.20;99.90;;;;;;5112626;28;20215;-64
2022/08/05 05:05:00;;;;;;;13.40;9.97;;;18.20;99.90;;;;;;5112121;28;20249;-64
2022/08/05 05:07:28;;;;;;;14.83;11.13;;;18.20;99.90;;;;;;5112237;28;20203;-64
2022/08/05 05:09:55;;;;;;;18.67;14.00;;;18.10;99.90;;;;;;5111835;28;20203;-63
2022/08/05 05:12:21;;;;;;;18.40;12.47;;;18.10;99.90;;;;;;5111755;28;20231;-63
2022/08/05 05:14:48;;;;;;;18.33;12.67;;;18.00;99.90;;;;;;5112092;28;20207;-63
2022/08/05 05:17:15;;;;;;;18.33;11.73;;;18.10;99.90;;;;;;5111686;28;20207;-62
2022/08/05 05:19:44;;;;;;;20.60;14.47;;;17.90;99.90;;;;;;5111586;28;20227;-61
2022/08/05 05:22:10;;;;;;;21.13;14.20;;;17.80;99.90;;;;;;5112010;28;20310;-63
2022/08/05 05:24:38;;;;;;;20.47;13.87;;;17.90;99.90;;;;;;5111871;28;20207;-64
2022/08/05 05:27:05;;;;;;;21.83;16.33;;;17.90;99.90;;;;;;5111421;28;20265;-64
2022/08/05 05:29:32;;;;;;;23.43;16.37;;;17.90;99.90;;;;;;5111898;28;20226;-64
2022/08/05 05:31:58;;;;;;;25.77;18.27;;;17.90;99.90;;;;;;5111491;28;20272;-63
2022/08/05 05:34:25;;;;;;;26.33;16.07;;;17.90;99.90;;;;;;5111837;28;20215;-63
2022/08/05 05:36:52;;;;;;;29.13;16.83;;;17.80;99.90;;;;;;5111448;28;20221;-62
2022/08/05 05:39:18;;;;;;;33.13;19.97;;;17.90;99.90;;;;;;5111771;28;20219;-62
2022/08/05 05:41:46;;;;;;;24.40;16.10;;;17.80;99.90;;;;;;5112226;28;20231;-62
2022/08/05 05:44:13;;;;;;;25.60;16.07;;;17.80;99.90;;;;;;5116174;28;20208;-63
2022/08/05 05:46:40;;;;;;;21.43;15.03;;;17.70;99.90;;;;;;5115538;28;20232;-63
2022/08/05 05:49:06;;;;;;;22.20;16.23;;;17.70;99.90;;;;;;5115823;28;20204;-64
2022/08/05 05:51:33;;;;;;;20.80;14.97;;;17.70;99.90;;;;;;5115571;28;20232;-64
2022/08/05 05:54:00;;;;;;;22.07;15.93;;;17.60;99.90;;;;;;5115438;28;20256;-62
2022/08/05 05:56:28;;;;;;;36.23;16.53;;;17.70;99.90;;;;;;5115625;28;20207;-62
2022/08/05 05:58:56;;;;;;;29.43;16.03;;;17.80;99.90;;;;;;5115439;28;20285;-63
2022/08/05 06:01:23;;;;;;;22.13;14.47;;;17.80;99.90;;;;;;5115444;28;20269;-66
2022/08/05 06:03:49;;;;;;;24.07;15.83;;;17.60;99.90;;;;;;5115597;28;20229;-67
2022/08/05 06:06:16;;;;;;;26.10;15.67;;;17.50;99.90;;;;;;5114685;28;20203;-66
2022/08/05 06:08:43;;;;;;;26.50;16.80;;;17.40;99.90;;;;;;5115220;27;20204;-68
2022/08/05 06:11:10;;;;;;;23.93;15.60;;;17.30;99.90;;;;;;5115154;27;20314;-67
2022/08/05 06:13:36;;;;;;;22.20;15.47;;;17.30;99.90;;;;;;5115241;28;20207;-66
2022/08/05 06:16:05;;;;;;;25.90;17.03;;;17.30;99.90;;;;;;5114636;28;20211;-67
2022/08/05 06:18:31;;;;;;;25.33;16.77;;;17.40;99.90;;;;;;5114976;28;20230;-69
2022/08/05 06:20:59;;;;;;;25.03;16.70;;;17.50;99.90;;;;;;5114789;28;20228;-66
2022/08/05 06:23:25;;;;;;;25.57;16.30;;;17.60;99.90;;;;;;5115417;28;20294;-65
2022/08/05 06:25:52;;;;;;;27.07;16.70;;;17.60;99.90;;;;;;5114829;28;20207;-64
2022/08/05 06:28:19;;;;;;;22.97;16.20;;;17.70;99.90;;;;;;5115088;28;20619;-66
2022/08/05 06:30:46;;;;;;;28.03;16.80;;;17.60;99.90;;;;;;5114935;28;20631;-65
2022/08/05 06:33:14;;;;;;;29.03;18.20;;;17.40;99.90;;;;;;5114770;28;20222;-63
2022/08/05 06:35:41;;;;;;;30.20;17.83;;;17.50;99.90;;;;;;5114905;28;20254;-65
2022/08/05 06:38:07;;;;;;;32.87;18.97;;;17.50;99.90;;;;;;5114158;28;20229;-65
2022/08/05 06:40:34;;;;;;;34.43;19.37;;;17.30;99.90;;;;;;5114750;28;20220;-68
2022/08/05 06:43:00;;;;;;;40.13;20.87;;;17.40;99.90;;;;;;5114389;28;20625;-67
2022/08/05 06:45:27;;;;;;;38.00;20.60;;;17.40;99.90;;;;;;5114546;28;20203;-68
2022/08/05 06:47:54;;;;;;;40.13;21.37;;;17.30;99.90;;;;;;5113899;28;20216;-63
2022/08/05 06:50:22;;;;;;;40.60;22.43;;;17.40;99.90;;;;;;5114727;28;20228;-63
2022/08/05 06:52:49;;;;;;;42.57;23.27;;;17.50;99.90;;;;;;5103615;28;21059;-66
2022/08/05 06:55:16;;;;;;;42.73;22.13;;;17.40;99.90;;;;;;5110944;28;20210;-65
2022/08/05 06:57:43;;;;;;;48.27;25.13;;;17.40;99.90;;;;;;5113528;28;20207;-66
2022/08/05 07:00:11;;;;;;;48.27;22.87;;;17.30;99.90;;;;;;5113545;28;20644;-65
2022/08/05 07:02:42;;;;;;;49.20;23.40;;;17.20;99.90;;;;;;5113489;28;20210;-66
2022/08/05 07:05:09;;;;;;;39.40;22.87;;;17.10;99.90;;;;;;5112883;28;20295;-67
2022/08/05 07:07:37;;;;;;;43.93;24.43;;;17.20;99.90;;;;;;5112994;28;20217;-66
2022/08/05 07:10:05;;;;;;;43.60;22.90;;;17.10;99.90;;;;;;5113680;28;20204;-66
2022/08/05 07:18:00;;;;;;;40.77;22.67;;;16.90;99.90;;;;;;5112847;28;20291;-66
2022/08/05 07:20:27;;;;;;;40.13;22.73;;;17.00;99.90;;;;;;5113512;28;20227;-66
2022/08/05 07:22:55;;;;;;;37.63;22.10;;;16.90;99.90;;;;;;5112743;28;20268;-66
2022/08/05 07:25:22;;;;;;;43.13;23.60;;;16.80;99.90;;;;;;5112889;28;20294;-64
2022/08/05 07:27:49;;;;;;;40.57;23.20;;;16.90;99.90;;;;;;5112828;27;20204;-66
2022/08/05 07:30:16;;;;;;;37.83;23.13;;;16.90;99.90;;;;;;5113474;28;20642;-67
2022/08/05 07:32:42;;;;;;;40.93;22.17;;;17.00;99.90;;;;;;5113317;28;20211;-64
2022/08/05 07:35:10;;;;;;;40.40;24.23;;;17.00;99.90;;;;;;5112737;28;20203;-66
2022/08/05 07:37:37;;;;;;;42.93;23.13;;;16.80;99.90;;;;;;5112610;28;20941;-65
2022/08/05 07:40:06;;;;;;;40.40;22.13;;;16.70;99.90;;;;;;5112441;28;20249;-65
2022/08/05 07:42:33;;;;;;;33.37;21.73;;;16.70;99.90;;;;;;5112989;28;20253;-64
2022/08/05 07:45:00;;;;;;;34.47;21.10;;;16.60;99.90;;;;;;5112446;28;20264;-65
2022/08/05 07:47:27;;;;;;;33.97;21.40;;;16.50;99.90;;;;;;5112578;28;20612;-66
2022/08/05 07:49:54;;;;;;;37.37;21.93;;;16.50;99.90;;;;;;5112718;28;20286;-66
2022/08/05 07:52:21;;;;;;;34.37;22.03;;;16.60;99.90;;;;;;5112399;27;20223;-66
2022/08/05 07:54:48;;;;;;;34.43;22.43;;;16.60;99.90;;;;;;5112603;28;20253;-66
2022/08/05 07:57:16;;;;;;;31.13;21.13;;;16.60;99.90;;;;;;5111975;28;20204;-66
2022/08/05 07:59:43;;;;;;;34.90;22.30;;;16.50;99.90;;;;;;5112841;28;20272;-66
2022/08/05 08:02:10;;;;;;;29.20;19.53;;;16.50;99.90;;;;;;5112385;28;20224;-65
2022/08/05 08:04:36;;;;;;;30.23;17.70;;;16.60;99.90;;;;;;5111630;28;20199;-67
2022/08/05 08:07:03;;;;;;;29.90;17.27;;;16.60;99.90;;;;;;5111520;28;20241;-66
2022/08/05 08:09:30;;;;;;;23.97;14.67;;;16.70;99.90;;;;;;5112242;28;20204;-68
2022/08/05 08:11:57;;;;;;;22.10;15.30;;;16.60;99.90;;;;;;5112527;28;20231;-63
2022/08/05 08:14:25;;;;;;;16.77;13.23;;;16.50;99.90;;;;;;5112027;28;20199;-63
2022/08/05 08:16:52;;;;;;;22.10;15.37;;;16.40;99.90;;;;;;5112209;28;20600;-64
2022/08/05 08:19:18;;;;;;;20.10;13.20;;;16.50;99.90;;;;;;5111825;28;20280;-64
2022/08/05 08:21:45;;;;;;;19.53;12.30;;;16.60;99.90;;;;;;5112201;28;20228;-65
2022/08/05 08:24:12;;;;;;;18.97;11.90;;;16.50;99.90;;;;;;5111914;28;20208;-68
2022/08/05 08:26:39;;;;;;;23.37;12.50;;;16.60;99.90;;;;;;5111946;28;20260;-66
2022/08/05 08:29:06;;;;;;;18.87;11.40;;;16.60;99.90;;;;;;5111878;28;20735;-66
2022/08/05 08:31:34;;;;;;;16.93;11.03;;;16.70;99.90;;;;;;5111722;28;20231;-67
2022/08/05 08:34:00;;;;;;;17.03;11.37;;;16.60;99.90;;;;;;5111983;27;20200;-67
2022/08/05 08:36:27;;;;;;;15.03;10.63;;;16.40;99.90;;;;;;5111489;28;20685;-66
2022/08/05 08:38:54;;;;;;;15.40;10.53;;;16.40;99.90;;;;;;5111746;27;20208;-66
2022/08/05 08:41:22;;;;;;;21.43;12.00;;;16.40;99.90;;;;;;5111575;28;20228;-66
2022/08/05 08:43:52;;;;;;;17.57;10.50;;;16.50;99.90;;;;;;5111994;28;20214;-66
2022/08/05 08:46:19;;;;;;;14.23;10.30;;;16.50;99.90;;;;;;5111363;28;20233;-65
2022/08/05 08:48:49;;;;;;;15.50;10.60;;;16.50;99.90;;;;;;5111269;28;20615;-66
2022/08/05 08:51:18;;;;;;;16.20;10.30;;;16.30;99.90;;;;;;5111903;28;20223;-65
2022/08/05 08:53:45;;;;;;;17.20;8.23;;;16.30;99.90;;;;;;5111578;28;20208;-64
2022/08/05 08:56:12;;;;;;;14.77;8.30;;;16.20;99.90;;;;;;5111577;28;20211;-65
2022/08/05 08:58:40;;;;;;;13.10;8.33;;;16.10;99.90;;;;;;5111739;28;20211;-65
2022/08/05 09:01:08;;;;;;;14.53;7.90;;;16.20;99.90;;;;;;5111388;28;20638;-64
2022/08/05 09:03:35;;;;;;;11.50;7.43;;;16.20;99.90;;;;;;5111412;28;20204;-66
2022/08/05 09:06:04;;;;;;;14.57;7.93;;;16.20;99.90;;;;;;5110783;28;20738;-67
2022/08/05 09:08:31;;;;;;;13.43;7.83;;;16.30;99.90;;;;;;5111972;28;20547;-67
2022/08/05 09:10:57;;;;;;;12.80;8.40;;;16.30;99.90;;;;;;5111212;28;20705;-68
2022/08/05 09:13:24;;;;;;;12.53;8.43;;;16.40;99.90;;;;;;5111432;28;20735;-68
2022/08/05 09:15:52;;;;;;;11.70;7.87;;;16.50;99.90;;;;;;5111090;28;20208;-66
2022/08/05 09:18:18;;;;;;;14.33;8.73;;;16.60;99.90;;;;;;5115861;28;20223;-67
2022/08/05 09:20:45;;;;;;;14.70;7.97;;;16.70;99.90;;;;;;5117748;28;20234;-68
2022/08/05 09:23:16;;;;;;;9.93;7.30;;;16.80;99.90;;;;;;5116703;28;20215;-68
2022/08/05 09:25:46;;;;;;;13.07;7.40;;;16.70;99.90;;;;;;5115751;27;20886;-66
2022/08/05 09:28:16;;;;;;;12.87;6.60;;;16.80;99.90;;;;;;5115091;28;20283;-67
2022/08/05 09:30:51;;;;;;;9.80;6.87;;;16.80;99.90;;;;;;5115435;28;20223;-67
2022/08/05 09:33:18;;;;;;;10.67;7.07;;;16.90;99.90;;;;;;5115290;28;20203;-66
2022/08/05 09:35:56;;;;;;;12.60;7.93;;;16.90;99.90;;;;;;5115542;28;20203;-65
2022/08/05 09:38:25;;;;;;;9.87;6.20;;;17.00;99.90;;;;;;5114172;28;20199;-66
2022/08/05 09:40:53;;;;;;;11.47;7.10;;;16.90;99.90;;;;;;5114580;28;20237;-64
2022/08/05 09:43:28;;;;;;;10.83;6.80;;;16.90;99.90;;;;;;5115234;28;20214;-65
2022/08/05 09:45:54;;;;;;;10.27;6.67;;;17.00;99.90;;;;;;5115121;28;20248;-64
2022/08/05 09:48:26;;;;;;;11.67;6.60;;;17.10;99.90;;;;;;5115437;28;20204;-64
2022/08/05 09:50:55;;;;;;;8.50;6.03;;;17.10;99.90;;;;;;5114901;28;20577;-66
2022/08/05 09:53:22;;;;;;;12.63;7.00;;;17.10;99.90;;;;;;5115227;28;20207;-65
2022/08/05 09:55:56;;;;;;;14.07;7.33;;;17.00;99.90;;;;;;5115088;28;20204;-65
2022/08/05 09:58:23;;;;;;;10.67;6.50;;;16.90;99.90;;;;;;5115419;28;20647;-64
2022/08/05 10:00:59;;;;;;;11.37;6.67;;;16.90;99.90;;;;;;5114703;28;20285;-64
2022/08/05 10:03:27;;;;;;;7.80;5.90;;;17.10;99.90;;;;;;5114994;28;20207;-65
2022/08/05 10:06:05;;;;;;;9.93;5.90;;;17.00;99.90;;;;;;5115592;28;20289;-63
2022/08/05 10:08:32;;;;;;;7.73;5.37;;;16.80;99.90;;;;;;5116083;28;20302;-64
2022/08/05 10:11:04;;;;;;;7.37;5.67;;;16.90;99.90;;;;;;5115354;28;20330;-61
2022/08/05 10:13:32;;;;;;;11.80;5.37;;;16.80;99.90;;;;;;5114979;28;20239;-63
2022/08/05 10:15:59;;;;;;;11.97;5.17;;;16.80;99.90;;;;;;5114520;28;20200;-64
2022/08/05 10:18:30;;;;;;;9.67;5.40;;;16.90;99.90;;;;;;5113978;28;20216;-66
2022/08/05 10:20:59;;;;;;;10.37;5.57;;;17.00;99.90;;;;;;5114650;28;20255;-64
2022/08/05 10:23:28;;;;;;;13.47;5.50;;;17.10;99.90;;;;;;5114417;28;20208;-64
2022/08/05 10:25:55;;;;;;;8.40;5.03;;;17.20;99.90;;;;;;5114228;28;20215;-64
2022/08/05 10:28:23;;;;;;;10.93;6.20;;;17.30;99.90;;;;;;5113938;28;20622;-62
2022/08/05 10:30:51;;;;;;;10.87;5.57;;;17.50;99.90;;;;;;5113904;28;20230;-62
2022/08/05 10:33:18;;;;;;;6.40;5.03;;;17.70;99.90;;;;;;5114270;27;20264;-62
2022/08/05 10:35:44;;;;;;;8.73;5.00;;;17.80;99.90;;;;;;5114286;27;20252;-65
2022/08/05 10:38:12;;;;;;;7.87;4.70;;;18.00;99.90;;;;;;5114481;28;20204;-64
2022/08/05 10:40:46;;;;;;;9.37;5.00;;;18.00;99.90;;;;;;5114036;28;20263;-65
2022/08/05 10:43:34;;;;;;;8.97;4.77;;;18.10;99.90;;;;;;5108546;27;20203;-67
2022/08/05 10:46:05;;;;;;;8.37;4.77;;;18.20;99.90;;;;;;5114435;27;20580;-67
2022/08/05 10:48:34;;;;;;;9.73;4.90;;;18.30;99.90;;;;;;5112002;27;20620;-65
2022/08/05 10:51:04;;;;;;;8.23;5.00;;;18.40;99.90;;;;;;5113989;28;20223;-69
2022/08/05 10:53:40;;;;;;;8.83;4.63;;;18.00;83.50;;;;;;5113732;28;20203;-67
2022/08/05 10:56:09;;;;;;;8.53;4.67;;;18.00;99.90;;;;;;5113735;28;20207;-66
2022/08/05 10:58:46;;;;;;;7.67;4.60;;;18.20;99.90;;;;;;5093386;28;20204;-68
2022/08/05 11:01:15;;;;;;;6.90;4.30;;;18.40;99.90;;;;;;5093553;28;20250;-68
2022/08/05 11:03:59;;;;;;;8.13;4.00;;;18.60;99.90;;;;;;5092843;28;20207;-68
2022/08/05 11:06:26;;;;;;;13.67;4.07;;;18.60;60.20;;;;;;5092860;28;20681;-66
2022/08/05 11:09:21;;;;;;;6.90;3.30;;;18.60;57.60;;;;;;5104374;28;20219;-69
2022/08/05 11:11:48;;;;;;;6.17;2.90;;;18.60;2.20;;;;;;5077483;28;20219;-66
2022/08/05 11:14:26;;;;;;;4.47;2.50;;;18.60;1.00;;;;;;5113220;28;20719;-65
2022/08/05 11:17:36;;;;;;;4.47;2.37;;;18.70;1.00;;;;;;5113089;28;20203;-67
2022/08/05 11:20:03;;;;;;;3.40;2.37;;;18.70;1.00;;;;;;5113208;28;20236;-68
2022/08/05 11:22:42;;;;;;;2.80;2.13;;;18.70;1.00;;;;;;5113545;28;20265;-66
2022/08/05 11:25:29;;;;;;;4.63;2.40;;;18.80;1.00;;;;;;5112831;28;20203;-71
2022/08/05 11:27:56;;;;;;;2.97;2.50;;;19.10;1.00;;;;;;5112939;28;20208;-68
2022/08/05 11:30:23;;;;;;;3.57;2.70;;;19.50;1.00;;;;;;5113288;28;20208;-67
2022/08/05 11:33:11;;;;;;;5.10;2.80;;;19.60;1.00;;;;;;5113132;28;20233;-69
2022/08/05 11:35:55;;;;;;;5.17;3.00;;;19.80;1.00;;;;;;5112322;28;20218;-62
2022/08/05 11:38:53;;;;;;;7.80;3.07;;;19.90;1.00;;;;;;5112742;28;20207;-66
2022/08/05 11:41:22;;;;;;;5.57;2.63;;;19.80;1.00;;;;;;5112209;28;20243;-68
2022/08/05 11:43:56;;;;;;;6.57;3.90;;;19.50;1.00;;;;;;5112192;28;20208;-67
2022/08/05 11:46:26;;;;;;;5.50;3.33;;;19.70;1.00;;;;;;5112587;28;20293;-68
2022/08/05 11:48:53;;;;;;;4.57;3.57;;;19.80;1.00;;;;;;5112559;27;20211;-69
2022/08/05 11:51:20;;;;;;;5.97;3.60;;;20.00;99.90;;;;;;5112657;28;20224;-66
2022/08/05 11:53:47;;;;;;;8.17;3.63;;;19.90;99.90;;;;;;5112691;28;20228;-64
2022/08/05 11:56:15;;;;;;;7.43;3.60;;;20.00;99.90;;;;;;5112019;28;20211;-67
2022/08/05 11:58:45;;;;;;;4.33;2.87;;;20.30;1.00;;;;;;5112871;28;20662;-67
2022/08/05 12:01:13;;;;;;;6.13;3.13;;;20.30;99.90;;;;;;5112582;28;20235;-65
2022/08/05 12:03:42;;;;;;;4.03;3.33;;;20.50;99.90;;;;;;5113031;28;20367;-66
2022/08/05 12:06:10;;;;;;;6.43;3.57;;;20.40;1.00;;;;;;5111349;28;20674;-66
2022/08/05 12:08:42;;;;;;;5.80;3.97;;;20.30;99.90;;;;;;5112869;28;20207;-65
2022/08/05 12:11:10;;;;;;;6.93;4.10;;;19.90;99.90;;;;;;5112505;28;20314;-64
2022/08/05 12:13:38;;;;;;;6.30;4.00;;;20.00;99.90;;;;;;5112378;28;20264;-66
2022/08/05 12:16:07;;;;;;;4.93;3.03;;;20.40;1.00;;;;;;5112205;28;20207;-65
2022/08/05 12:18:34;;;;;;;6.00;3.57;;;20.50;99.90;;;;;;5112182;28;20215;-65
2022/08/05 12:21:12;;;;;;;5.80;3.83;;;20.60;99.90;;;;;;5112525;28;20227;-65
2022/08/05 12:23:40;;;;;;;5.30;3.60;;;20.50;99.90;;;;;;5111564;28;20260;-67
2022/08/05 12:26:06;;;;;;;6.93;4.20;;;20.50;1.00;;;;;;5111605;28;20210;-64
2022/08/05 12:28:35;;;;;;;6.13;4.37;;;20.30;1.00;;;;;;5111902;28;20203;-65
2022/08/05 12:31:03;;;;;;;6.90;4.73;;;20.20;51.00;;;;;;5113328;28;20223;-67
2022/08/05 12:33:30;;;;;;;5.17;4.47;;;20.40;99.90;;;;;;5113099;28;20204;-67
2022/08/05 12:35:57;;;;;;;6.37;4.73;;;20.20;1.00;;;;;;5111093;28;20714;-66
2022/08/05 12:38:25;;;;;;;8.77;6.27;;;20.10;99.90;;;;;;5112266;28;20215;-68
2022/08/05 12:40:52;;;;;;;7.53;5.23;;;20.10;99.90;;;;;;5113709;28;20227;-68
2022/08/05 12:43:19;;;;;;;6.43;5.37;;;20.10;99.90;;;;;;5112081;28;20550;-69
2022/08/05 12:45:53;;;;;;;7.27;5.13;;;20.00;1.00;;;;;;5111381;28;20252;-68
2022/08/05 12:48:21;;;;;;;8.10;4.97;;;20.00;1.00;;;;;;5113399;28;20208;-66
2022/08/05 12:51:10;;;;;;;6.40;4.50;;;20.10;99.90;;;;;;5112300;28;20231;-66
2022/08/05 12:53:41;;;;;;;7.93;5.17;;;20.20;99.90;;;;;;5112345;28;20302;-66
2022/08/05 12:56:22;;;;;;;5.13;4.50;;;20.60;99.90;;;;;;5111976;28;20291;-66